Terminal Aerodrome Forecast
Issued by NWS Pocatello, ID

Home | Current Version | Previous Version | Text Only | Print | Product List | Glossary On
Versions: 1 2 3 4 5 6 7 8 9 10 11 12 13 14
000
FTUS45 KPIH 251700
TAFBYI
TAF
KBYI 251735Z 2518/2618 26010G20KT P6SM SCT008 OVC035
     FM251900 27020G30KT P6SM SCT008 OVC035
     FM252100 27025G35KT P6SM SCT008 OVC035
     FM260400 26020G30KT P6SM SCT008 OVC025
     FM261200 25015G25KT P6SM SCT008 OVC035=

USA.gov is the U.S. government's official web portal to all federal, state and local government web resources and services.